createdAt,value
2023-03-23T15:59:56.182Z,8.13
2023-03-23T16:03:08.030Z,6.40
2023-03-23T16:06:25.039Z,5.45
2023-03-23T16:09:28.244Z,7.18
2023-03-23T16:12:31.111Z,5.30
2023-03-23T16:18:37.614Z,5.80
2023-03-23T16:21:41.128Z,7.20
2023-03-23T16:24:43.955Z,4.18
2023-03-23T16:27:52.246Z,5.07
2023-03-23T16:30:56.367Z,3.97
2023-03-23T16:33:59.242Z,4.45
2023-03-23T16:40:07.157Z,4.65
2023-03-23T16:43:10.840Z,4.78
2023-03-23T16:46:14.332Z,7.05
2023-03-23T16:49:17.359Z,4.05
2023-03-23T16:55:26.198Z,4.03
2023-03-23T16:58:29.174Z,9.10
2023-03-23T17:04:34.882Z,11.90
2023-03-23T17:07:39.160Z,8.55
2023-03-23T17:10:43.789Z,9.38
2023-03-23T17:13:46.619Z,6.10
2023-03-23T17:19:52.494Z,7.45
2023-03-23T17:22:55.384Z,6.10
2023-03-23T17:25:58.439Z,5.90
2023-03-23T17:32:06.000Z,6.53
2023-03-23T17:35:13.941Z,7.78
2023-03-23T17:38:17.843Z,8.75
2023-03-23T17:41:23.461Z,7.40
2023-03-23T17:44:26.719Z,6.57
2023-03-23T17:47:30.612Z,7.57
2023-03-23T17:50:34.965Z,9.57
2023-03-23T17:53:38.111Z,13.55
2023-03-23T17:56:41.434Z,7.37
2023-03-23T17:59:47.086Z,6.43
2023-03-23T18:02:50.398Z,8.90
2023-03-23T18:06:11.918Z,8.60
2023-03-23T18:09:22.877Z,12.40
2023-03-23T18:12:26.169Z,9.98
2023-03-23T18:15:29.676Z,10.02
2023-03-23T18:18:39.577Z,8.05
2023-03-23T18:21:45.968Z,11.77
2023-03-23T18:24:58.623Z,10.85
2023-03-23T18:28:05.602Z,10.50
2023-03-23T18:31:13.925Z,11.63
2023-03-23T18:34:16.505Z,12.48
2023-03-23T18:37:20.545Z,11.73
2023-03-23T18:40:25.326Z,12.70
2023-03-23T18:43:28.572Z,8.88
2023-03-23T18:46:33.020Z,10.98
2023-03-23T18:49:46.365Z,8.32
2023-03-23T18:52:49.060Z,10.55
2023-03-23T18:55:52.829Z,15.02
2023-03-23T18:58:55.504Z,11.75
2023-03-23T19:01:59.857Z,12.35
2023-03-23T19:05:02.720Z,11.88
2023-03-23T19:08:08.298Z,15.57
2023-03-23T19:11:10.993Z,11.73
2023-03-23T19:14:14.549Z,9.13
2023-03-23T19:17:17.626Z,14.68
2023-03-23T19:20:37.484Z,13.18
2023-03-23T19:23:43.390Z,11.43
2023-03-23T19:26:47.968Z,12.68
2023-03-23T19:29:50.705Z,14.82
2023-03-23T19:32:54.258Z,14.32
2023-03-23T19:36:07.351Z,14.35
2023-03-23T19:39:14.829Z,18.17
2023-03-23T19:42:18.564Z,14.45
2023-03-23T19:45:21.688Z,12.45
2023-03-23T19:48:24.545Z,14.00
2023-03-23T19:51:28.553Z,14.75
2023-03-23T19:54:31.798Z,14.60
2023-03-23T19:57:35.238Z,16.98
2023-03-23T20:00:38.168Z,15.13
2023-03-23T20:03:42.252Z,18.12
2023-03-23T20:06:45.935Z,14.77
2023-03-23T20:09:49.766Z,19.48
2023-03-23T20:15:58.103Z,13.83
2023-03-23T20:19:04.433Z,17.90
2023-03-23T20:22:11.270Z,14.40
2023-03-23T20:25:17.517Z,15.60
2023-03-23T20:28:20.670Z,15.07
2023-03-23T20:31:30.351Z,13.23
2023-03-23T20:34:34.164Z,14.52
2023-03-23T20:37:41.089Z,14.48
2023-03-23T20:40:45.340Z,13.07
2023-03-23T20:43:48.105Z,13.32
2023-03-23T20:49:55.937Z,13.43
2023-03-23T20:52:59.097Z,12.45
2023-03-23T20:56:05.520Z,14.63
2023-03-23T20:59:09.937Z,11.68
2023-03-23T21:02:18.182Z,13.77
2023-03-23T21:05:21.518Z,12.65
2023-03-23T21:08:24.712Z,12.05
2023-03-23T21:11:28.123Z,13.80
2023-03-23T21:14:30.697Z,10.20
2023-03-23T21:20:37.775Z,13.10
2023-03-23T21:23:46.456Z,10.60
2023-03-23T21:26:49.169Z,11.60
2023-03-23T21:29:57.020Z,16.60
2023-03-23T21:32:59.588Z,13.55
2023-03-23T21:36:03.800Z,15.27
2023-03-23T21:39:06.371Z,12.23
2023-03-23T21:45:14.026Z,13.02
2023-03-23T21:48:17.141Z,14.40
2023-03-23T21:51:24.779Z,15.05
2023-03-23T21:54:31.629Z,12.63
2023-03-23T21:57:34.404Z,15.18
2023-03-23T22:03:41.131Z,15.25
2023-03-23T22:06:44.626Z,18.05
2023-03-23T22:09:47.611Z,13.55
2023-03-23T22:12:53.684Z,13.02
2023-03-23T22:15:59.646Z,13.43
2023-03-23T22:19:02.533Z,13.93
2023-03-23T22:22:05.963Z,12.85
2023-03-23T22:25:08.922Z,13.93
2023-03-23T22:28:11.843Z,12.68
2023-03-23T22:31:18.763Z,12.65
2023-03-23T22:34:21.926Z,14.32
2023-03-23T22:40:27.600Z,13.68
2023-03-23T22:43:31.072Z,14.18
2023-03-23T22:46:34.292Z,13.13
2023-03-23T22:49:37.371Z,13.27
2023-03-23T22:55:44.990Z,13.43
2023-03-23T22:58:47.979Z,14.27
2023-03-23T23:01:50.936Z,13.82
2023-03-23T23:04:54.653Z,12.63
2023-03-23T23:07:57.614Z,13.95
2023-03-23T23:11:02.636Z,12.10
2023-03-23T23:14:05.572Z,14.18
2023-03-23T23:17:08.694Z,15.07
2023-03-23T23:23:17.485Z,16.70
2023-03-23T23:29:23.572Z,13.17
2023-03-23T23:32:29.121Z,13.32
2023-03-23T23:35:32.183Z,12.75
2023-03-23T23:38:36.068Z,16.55
2023-03-23T23:41:39.286Z,13.40
2023-03-23T23:47:47.072Z,14.77
2023-03-23T23:50:51.422Z,15.40
2023-03-23T23:53:58.921Z,14.90
2023-03-23T23:57:02.552Z,17.30
